Time;durP1;ratioP1;P1;durP2;ratioP2;P2;SDS_P1;SDS_P2;PMS_P1;PMS_P2;Temp;Humidity;BMP_temperature;BMP_pressure;BME280_temperature;BME280_humidity;BME280_pressure;Samples;Min_cycle;Max_cycle;Signal;HPM_P1;HPM_P2
2021/06/19 00:00:12;;;;;;;12.83;11.63;;;22.40;99.90;;;;;;5118009;28;20605;-55
2021/06/19 00:02:40;;;;;;;12.50;11.50;;;22.30;99.90;;;;;;5114175;28;20408;-55
2021/06/19 00:05:09;;;;;;;15.60;14.20;;;22.40;99.90;;;;;;5115475;28;20409;-56
2021/06/19 00:07:37;;;;;;;14.47;13.13;;;22.20;99.90;;;;;;5115734;28;20444;-55
2021/06/19 00:10:05;;;;;;;14.50;13.10;;;22.10;99.90;;;;;;5115194;28;20446;-56
2021/06/19 00:12:34;;;;;;;14.40;13.30;;;22.00;99.90;;;;;;5112671;28;20450;-56
2021/06/19 00:15:07;;;;;;;13.90;12.60;;;22.00;99.90;;;;;;5118508;28;20416;-56
2021/06/19 00:17:34;;;;;;;15.73;13.93;;;21.90;99.90;;;;;;5101299;28;20730;-57
2021/06/19 00:20:06;;;;;;;14.73;13.43;;;21.90;99.90;;;;;;5112973;28;20480;-58
2021/06/19 00:22:34;;;;;;;14.50;13.27;;;21.90;99.90;;;;;;5110874;28;20441;-54
2021/06/19 00:25:01;;;;;;;14.20;13.03;;;21.90;99.90;;;;;;5117809;28;20416;-55
2021/06/19 00:27:28;;;;;;;14.57;13.17;;;21.80;99.90;;;;;;5117098;28;20415;-55
2021/06/19 00:29:55;;;;;;;13.93;12.63;;;21.80;99.90;;;;;;5117074;28;20779;-55
2021/06/19 00:32:22;;;;;;;14.50;13.40;;;21.70;99.90;;;;;;5118234;28;20432;-55
2021/06/19 00:34:49;;;;;;;13.93;12.67;;;21.70;99.90;;;;;;5109008;28;20462;-56
2021/06/19 00:37:16;;;;;;;15.40;14.00;;;21.70;99.90;;;;;;5106642;28;20419;-55
2021/06/19 00:39:44;;;;;;;15.13;13.87;;;21.70;99.90;;;;;;5111576;28;20457;-56
2021/06/19 00:42:11;;;;;;;14.67;13.27;;;21.70;99.90;;;;;;5110826;28;20429;-56
2021/06/19 00:44:38;;;;;;;14.17;13.07;;;21.80;99.90;;;;;;5111423;28;20763;-52
2021/06/19 00:47:05;;;;;;;15.00;13.60;;;21.70;99.90;;;;;;5117129;28;20432;-55
2021/06/19 00:49:32;;;;;;;15.27;13.83;;;21.70;99.90;;;;;;5110366;27;20446;-52
2021/06/19 00:51:59;;;;;;;15.47;14.07;;;21.70;99.90;;;;;;5111093;28;20796;-55
2021/06/19 00:54:27;;;;;;;14.77;13.47;;;21.70;99.90;;;;;;5096613;28;20492;-56
2021/06/19 00:56:54;;;;;;;14.90;13.13;;;21.70;99.90;;;;;;5109685;28;20657;-56
2021/06/19 00:59:22;;;;;;;16.33;14.83;;;21.50;99.90;;;;;;5109012;28;20411;-55
2021/06/19 01:01:49;;;;;;;17.00;14.13;;;21.60;99.90;;;;;;5111622;28;20464;-53
2021/06/19 01:04:16;;;;;;;16.37;14.47;;;21.70;99.90;;;;;;5115199;28;20436;-55
2021/06/19 01:06:43;;;;;;;14.03;12.83;;;21.50;99.90;;;;;;5114937;27;20415;-55
2021/06/19 01:09:11;;;;;;;14.87;13.73;;;21.60;99.90;;;;;;5116756;28;20499;-56
2021/06/19 01:11:39;;;;;;;17.57;14.97;;;21.30;99.90;;;;;;5114177;28;20420;-53
2021/06/19 01:14:07;;;;;;;14.50;13.10;;;21.20;99.90;;;;;;5116998;28;20479;-56
2021/06/19 01:16:35;;;;;;;17.27;15.70;;;21.20;99.90;;;;;;5113310;28;20443;-55
2021/06/19 01:19:03;;;;;;;15.53;14.13;;;21.20;99.90;;;;;;5114678;28;20478;-56
2021/06/19 01:21:31;;;;;;;17.70;14.67;;;21.30;99.90;;;;;;5115589;28;20514;-56
2021/06/19 01:23:59;;;;;;;18.20;16.27;;;21.10;99.90;;;;;;5110821;28;20744;-53
2021/06/19 01:26:29;;;;;;;16.07;14.57;;;21.00;99.90;;;;;;5107980;28;20419;-56
2021/06/19 01:28:58;;;;;;;17.00;15.20;;;21.00;99.90;;;;;;5109452;28;20425;-56
2021/06/19 01:31:27;;;;;;;16.27;14.67;;;21.10;99.90;;;;;;5096662;28;20510;-56
2021/06/19 01:33:54;;;;;;;18.40;15.27;;;21.20;99.90;;;;;;5111061;28;20686;-56
2021/06/19 01:36:23;;;;;;;15.63;14.23;;;21.10;99.90;;;;;;5095214;28;20410;-57
2021/06/19 01:38:53;;;;;;;15.63;14.13;;;21.10;99.90;;;;;;5098348;28;20418;-56
2021/06/19 01:41:26;;;;;;;17.57;15.87;;;21.20;99.90;;;;;;5116287;28;20732;-57
2021/06/19 01:44:12;;;;;;;17.47;15.80;;;21.20;99.90;;;;;;5106496;28;20423;-56
2021/06/19 01:46:41;;;;;;;18.03;15.30;;;21.30;99.90;;;;;;5097325;28;20761;-56
2021/06/19 01:49:09;;;;;;;17.00;15.50;;;21.10;99.90;;;;;;5109906;28;20460;-55
2021/06/19 01:51:37;;;;;;;17.10;15.53;;;21.00;99.90;;;;;;5114262;28;20446;-55
2021/06/19 01:54:05;;;;;;;17.13;15.40;;;21.00;99.90;;;;;;5099471;28;20788;-57
2021/06/19 01:56:32;;;;;;;16.17;14.53;;;21.00;99.90;;;;;;5113695;28;20523;-52
2021/06/19 01:58:59;;;;;;;17.60;16.00;;;21.00;99.90;;;;;;5114730;28;20776;-55
2021/06/19 02:01:26;;;;;;;15.63;14.20;;;20.90;99.90;;;;;;5111219;28;20819;-55
2021/06/19 02:03:53;;;;;;;16.40;15.00;;;20.90;99.90;;;;;;5116820;28;20436;-57
2021/06/19 02:06:21;;;;;;;16.43;14.83;;;20.90;99.90;;;;;;5107366;28;20510;-56
2021/06/19 02:09:03;;;;;;;16.40;14.83;;;21.10;99.90;;;;;;5111261;28;20447;-56
2021/06/19 02:11:31;;;;;;;17.30;15.50;;;21.00;99.90;;;;;;5112559;28;20442;-57
2021/06/19 02:13:58;;;;;;;17.70;15.90;;;21.10;99.90;;;;;;5116446;28;20449;-56
2021/06/19 02:16:24;;;;;;;15.60;14.27;;;21.20;99.90;;;;;;5117613;28;20761;-57
2021/06/19 02:18:51;;;;;;;16.60;15.20;;;21.30;99.90;;;;;;5112663;28;20854;-55
2021/06/19 02:21:19;;;;;;;16.70;15.00;;;21.30;99.90;;;;;;5106867;28;20602;-54
2021/06/19 02:23:46;;;;;;;18.83;17.03;;;21.30;99.90;;;;;;5102668;28;20443;-55
2021/06/19 02:26:13;;;;;;;19.23;17.53;;;21.20;99.90;;;;;;5110764;28;20439;-54
2021/06/19 02:28:40;;;;;;;17.33;15.80;;;21.10;99.90;;;;;;5109138;28;20591;-55
2021/06/19 02:31:07;;;;;;;16.77;15.33;;;20.80;99.90;;;;;;5115480;28;20463;-55
2021/06/19 02:33:35;;;;;;;20.93;15.40;;;20.60;99.90;;;;;;5116056;28;20803;-57
2021/06/19 02:36:02;;;;;;;17.10;15.50;;;20.60;99.90;;;;;;5112635;28;20430;-56
2021/06/19 02:38:29;;;;;;;17.40;15.70;;;20.50;99.90;;;;;;5104176;28;20413;-52
2021/06/19 02:40:56;;;;;;;18.80;17.00;;;20.60;99.90;;;;;;5101380;28;20748;-55
2021/06/19 02:43:24;;;;;;;17.60;15.87;;;20.40;99.90;;;;;;5113606;28;20422;-53
2021/06/19 02:45:51;;;;;;;17.70;16.03;;;20.40;99.90;;;;;;5115521;28;20447;-55
2021/06/19 02:48:18;;;;;;;16.60;15.10;;;20.30;99.90;;;;;;5111026;28;20441;-58
2021/06/19 02:50:49;;;;;;;17.63;16.03;;;20.30;99.90;;;;;;5109623;28;20717;-57
2021/06/19 02:53:16;;;;;;;17.83;15.93;;;20.30;99.90;;;;;;5112180;28;20481;-55
2021/06/19 02:55:44;;;;;;;17.87;16.27;;;20.40;99.90;;;;;;5114032;28;20413;-56
2021/06/19 02:58:13;;;;;;;19.47;17.47;;;20.30;99.90;;;;;;5118142;28;20410;-55
2021/06/19 03:00:40;;;;;;;18.50;16.70;;;20.30;99.90;;;;;;5113469;28;20416;-56
2021/06/19 03:03:09;;;;;;;16.50;15.00;;;20.30;99.90;;;;;;5117040;28;20435;-56
2021/06/19 03:05:38;;;;;;;16.13;14.63;;;20.30;99.90;;;;;;5116634;28;20641;-53
2021/06/19 03:08:06;;;;;;;17.27;15.57;;;20.30;99.90;;;;;;5116026;28;20431;-54
2021/06/19 03:10:36;;;;;;;17.30;15.70;;;20.40;99.90;;;;;;5117270;28;20418;-55
2021/06/19 03:13:03;;;;;;;19.07;17.13;;;20.30;99.90;;;;;;5114997;28;20418;-55
2021/06/19 03:15:31;;;;;;;16.43;14.83;;;20.30;99.90;;;;;;5118432;28;20765;-55
2021/06/19 03:17:58;;;;;;;18.17;16.70;;;20.30;99.90;;;;;;5112303;28;20451;-55
2021/06/19 03:20:25;;;;;;;15.87;14.57;;;20.50;99.90;;;;;;5115511;28;20445;-54
2021/06/19 03:22:53;;;;;;;18.27;16.40;;;20.70;99.90;;;;;;5114969;28;20424;-54
2021/06/19 03:25:23;;;;;;;17.73;15.80;;;20.90;99.90;;;;;;5116970;28;20422;-58
2021/06/19 03:27:54;;;;;;;17.27;15.47;;;21.00;99.90;;;;;;5105347;28;20680;-55
2021/06/19 03:30:23;;;;;;;17.67;15.93;;;21.10;99.90;;;;;;5118859;28;20702;-55
2021/06/19 03:32:50;;;;;;;18.97;16.93;;;21.20;99.90;;;;;;5117409;28;20440;-52
2021/06/19 03:35:19;;;;;;;18.30;16.43;;;21.50;99.90;;;;;;5119070;28;20690;-54
2021/06/19 03:37:47;;;;;;;15.83;14.37;;;21.80;99.90;;;;;;5117865;28;20739;-56
2021/06/19 03:40:16;;;;;;;16.90;15.40;;;22.10;99.90;;;;;;5109686;28;20417;-53
2021/06/19 03:42:45;;;;;;;16.90;15.40;;;22.70;99.90;;;;;;5114311;28;20447;-55
2021/06/19 03:45:13;;;;;;;15.53;14.27;;;23.00;99.90;;;;;;5111465;28;20927;-52
2021/06/19 03:47:42;;;;;;;16.67;15.17;;;23.20;99.90;;;;;;5116730;28;20759;-54
2021/06/19 03:50:12;;;;;;;18.63;16.77;;;23.40;99.90;;;;;;5108335;28;20442;-57
2021/06/19 03:52:40;;;;;;;17.10;15.50;;;23.20;99.90;;;;;;5103702;28;20812;-53
2021/06/19 03:55:08;;;;;;;16.80;15.30;;;23.40;99.90;;;;;;5098072;28;20685;-55
2021/06/19 03:57:36;;;;;;;15.87;14.47;;;23.40;99.90;;;;;;5097999;28;20785;-57
2021/06/19 04:00:05;;;;;;;16.70;15.40;;;23.50;99.90;;;;;;5116398;28;20432;-58
2021/06/19 04:02:32;;;;;;;16.93;15.33;;;23.60;99.80;;;;;;5118207;28;20421;-56
2021/06/19 04:04:59;;;;;;;15.57;14.13;;;23.60;99.60;;;;;;5115282;28;20491;-55
2021/06/19 04:07:29;;;;;;;17.80;16.00;;;23.50;99.70;;;;;;5133991;27;20666;-56
2021/06/19 04:09:56;;;;;;;18.37;16.57;;;23.40;99.90;;;;;;5103775;28;20435;-53
2021/06/19 04:12:24;;;;;;;14.70;13.57;;;23.30;99.90;;;;;;5117732;28;20612;-51
2021/06/19 04:14:51;;;;;;;14.87;13.67;;;23.10;99.90;;;;;;5103170;28;20478;-54
2021/06/19 04:17:19;;;;;;;15.53;14.23;;;23.00;99.90;;;;;;5110961;28;20437;-54
2021/06/19 04:19:47;;;;;;;16.47;14.90;;;22.90;99.90;;;;;;5111732;28;20417;-53
2021/06/19 04:22:15;;;;;;;17.80;16.20;;;23.00;99.90;;;;;;5103846;28;20778;-57
2021/06/19 04:24:42;;;;;;;15.40;14.17;;;23.00;99.90;;;;;;5111699;27;20874;-58
2021/06/19 04:27:15;;;;;;;15.47;14.07;;;23.10;99.90;;;;;;5099981;28;20493;-53
2021/06/19 04:29:43;;;;;;;14.40;13.30;;;23.20;99.90;;;;;;5118595;27;20446;-57
2021/06/19 04:32:11;;;;;;;14.77;13.70;;;23.20;99.90;;;;;;5117167;28;20514;-54
2021/06/19 04:34:40;;;;;;;15.40;13.97;;;23.30;99.60;;;;;;5111816;28;20452;-55
2021/06/19 04:37:11;;;;;;;17.40;15.90;;;22.40;99.80;;;;;;5114361;28;20421;-57
2021/06/19 04:39:43;;;;;;;18.17;16.53;;;23.20;99.90;;;;;;5096351;28;20662;-52
2021/06/19 04:42:14;;;;;;;15.13;13.67;;;23.20;99.90;;;;;;5097603;28;20422;-56
2021/06/19 04:47:24;;;;;;;16.17;14.63;;;23.50;99.90;;;;;;5104179;28;20406;-56
2021/06/19 04:49:52;;;;;;;15.87;14.60;;;23.60;99.70;;;;;;5116227;28;20548;-58
2021/06/19 04:52:20;;;;;;;15.70;14.30;;;23.60;99.70;;;;;;5117341;28;20475;-57
2021/06/19 04:54:47;;;;;;;15.80;14.60;;;23.80;99.70;;;;;;5111495;27;20448;-57
2021/06/19 04:57:14;;;;;;;15.73;14.37;;;23.90;99.00;;;;;;5109934;28;20928;-55
2021/06/19 04:59:41;;;;;;;16.60;15.00;;;24.00;99.00;;;;;;5112477;28;20413;-56
2021/06/19 05:02:08;;;;;;;15.63;14.33;;;24.10;99.00;;;;;;5114947;28;20475;-55
2021/06/19 05:04:35;;;;;;;15.17;14.07;;;24.20;98.70;;;;;;5114313;28;20424;-57
2021/06/19 05:07:03;;;;;;;16.47;14.73;;;24.20;98.70;;;;;;5116965;28;20490;-53
2021/06/19 05:09:30;;;;;;;15.77;14.37;;;24.30;98.90;;;;;;5115700;28;20413;-56
2021/06/19 05:11:57;;;;;;;16.30;14.90;;;24.20;98.50;;;;;;5115164;28;20479;-57
2021/06/19 05:14:24;;;;;;;15.43;13.93;;;24.40;98.40;;;;;;5114641;28;20534;-56
2021/06/19 05:16:51;;;;;;;16.10;14.63;;;24.40;98.60;;;;;;5111289;28;20611;-56
2021/06/19 05:19:19;;;;;;;16.47;15.07;;;24.40;98.30;;;;;;5113828;28;20417;-58
2021/06/19 05:21:46;;;;;;;15.63;14.33;;;24.40;98.30;;;;;;5112469;28;20462;-56
2021/06/19 05:24:14;;;;;;;17.07;15.40;;;24.30;98.40;;;;;;5107140;28;20484;-55
2021/06/19 05:26:41;;;;;;;17.77;15.93;;;24.40;98.50;;;;;;5110748;28;20438;-57
2021/06/19 05:29:08;;;;;;;15.83;14.47;;;24.50;98.20;;;;;;5114555;27;20526;-55
2021/06/19 05:31:35;;;;;;;19.80;18.03;;;24.60;98.40;;;;;;5107993;28;20409;-56
2021/06/19 05:34:02;;;;;;;18.53;17.10;;;24.80;97.80;;;;;;5115439;28;20467;-55
2021/06/19 05:36:29;;;;;;;18.10;15.50;;;25.00;97.60;;;;;;5113116;28;20470;-56
2021/06/19 05:38:56;;;;;;;17.97;16.47;;;25.10;97.60;;;;;;5114787;28;20684;-55
2021/06/19 05:41:23;;;;;;;18.67;16.97;;;25.10;97.40;;;;;;5112425;28;20488;-56
2021/06/19 05:43:50;;;;;;;16.43;15.10;;;25.20;97.40;;;;;;5108944;28;20672;-56
2021/06/19 05:46:18;;;;;;;18.60;16.80;;;25.40;97.60;;;;;;5109884;28;20594;-56
2021/06/19 05:48:45;;;;;;;18.20;16.67;;;25.60;96.70;;;;;;5108560;28;20762;-57
2021/06/19 05:51:12;;;;;;;17.20;15.67;;;25.70;96.80;;;;;;5112930;28;20672;-55
2021/06/19 05:53:39;;;;;;;16.40;14.77;;;25.90;96.40;;;;;;5114052;28;20419;-56
2021/06/19 05:56:06;;;;;;;18.83;17.03;;;26.00;96.10;;;;;;5110008;28;20438;-56
2021/06/19 05:58:33;;;;;;;17.47;16.07;;;26.00;96.30;;;;;;5111596;28;20422;-57
2021/06/19 06:01:00;;;;;;;17.23;15.83;;;26.20;96.00;;;;;;5111331;28;20419;-56
2021/06/19 06:03:27;;;;;;;18.63;16.80;;;26.40;95.80;;;;;;5115610;28;20409;-56
2021/06/19 06:05:54;;;;;;;18.23;16.90;;;26.30;95.80;;;;;;5104797;28;20445;-57
2021/06/19 06:08:21;;;;;;;20.53;18.47;;;26.50;95.30;;;;;;5115089;28;20434;-55
2021/06/19 06:10:48;;;;;;;16.60;15.30;;;26.90;95.40;;;;;;5114455;28;20443;-56
2021/06/19 06:13:15;;;;;;;18.50;16.70;;;27.60;94.30;;;;;;5113496;28;20562;-56
2021/06/19 06:15:42;;;;;;;18.33;17.00;;;27.60;93.80;;;;;;5115828;28;20682;-54
2021/06/19 06:18:09;;;;;;;17.70;16.33;;;27.40;94.10;;;;;;5104879;28;20538;-57
2021/06/19 06:20:36;;;;;;;17.60;16.30;;;27.90;93.80;;;;;;5115408;28;20952;-58
2021/06/19 06:23:07;;;;;;;18.87;17.47;;;28.10;93.10;;;;;;5112451;28;20664;-58
2021/06/19 06:25:34;;;;;;;18.50;16.93;;;28.90;92.10;;;;;;5110691;28;20452;-54
2021/06/19 06:28:02;;;;;;;16.77;15.40;;;30.10;90.40;;;;;;5110269;28;20442;-56
2021/06/19 06:30:29;;;;;;;19.37;17.90;;;31.60;86.50;;;;;;5115941;28;20443;-57
2021/06/19 06:32:56;;;;;;;18.53;17.23;;;31.40;85.80;;;;;;5119884;28;20535;-57
2021/06/19 06:35:23;;;;;;;17.43;16.13;;;30.90;86.80;;;;;;5104631;28;20484;-56
2021/06/19 06:37:50;;;;;;;19.93;18.47;;;30.40;88.20;;;;;;5109587;28;20439;-56
2021/06/19 06:40:18;;;;;;;19.20;17.50;;;29.70;89.30;;;;;;5115342;28;20479;-57
2021/06/19 06:42:45;;;;;;;18.37;17.17;;;29.80;89.60;;;;;;5108494;28;20815;-57
2021/06/19 06:45:14;;;;;;;17.87;16.57;;;30.00;88.40;;;;;;5119749;28;20439;-57
2021/06/19 06:47:48;;;;;;;18.90;17.40;;;30.70;86.50;;;;;;5110360;28;20447;-54
2021/06/19 06:50:16;;;;;;;16.33;15.13;;;31.90;83.20;;;;;;5118794;28;20760;-58
2021/06/19 06:52:44;;;;;;;17.40;16.10;;;33.20;78.80;;;;;;5116133;28;20446;-56
2021/06/19 06:55:12;;;;;;;17.67;16.43;;;34.40;72.80;;;;;;5119009;27;20807;-55
2021/06/19 06:57:40;;;;;;;15.73;14.73;;;35.90;68.70;;;;;;5114334;28;20464;-56
2021/06/19 07:00:08;;;;;;;16.80;15.50;;;36.80;64.50;;;;;;5117835;28;20707;-57
2021/06/19 07:02:39;;;;;;;16.87;15.67;;;38.10;59.50;;;;;;5118039;28;20585;-57
2021/06/19 07:05:09;;;;;;;17.70;16.70;;;39.00;57.30;;;;;;5119385;28;20442;-57
2021/06/19 07:07:37;;;;;;;17.70;16.40;;;40.70;51.90;;;;;;5112423;28;20609;-58
2021/06/19 07:10:06;;;;;;;15.50;14.60;;;41.50;48.50;;;;;;5118220;28;20463;-57
2021/06/19 07:12:45;;;;;;;16.87;15.70;;;41.50;47.10;;;;;;5115668;28;20821;-59
2021/06/19 07:15:15;;;;;;;17.30;16.40;;;41.20;47.30;;;;;;5116165;28;20507;-57
2021/06/19 07:17:44;;;;;;;16.53;15.63;;;42.10;45.70;;;;;;5118463;28;20465;-58
2021/06/19 07:20:11;;;;;;;16.27;15.33;;;42.60;43.80;;;;;;5113774;28;20454;-56
2021/06/19 07:22:40;;;;;;;17.50;16.50;;;41.10;46.20;;;;;;5129540;27;20458;-56
2021/06/19 07:25:08;;;;;;;16.73;15.70;;;41.10;45.40;;;;;;5118768;28;20479;-56
2021/06/19 07:27:36;;;;;;;16.80;15.80;;;39.50;48.40;;;;;;5115684;28;20491;-57
2021/06/19 07:30:09;;;;;;;17.47;16.10;;;40.70;46.30;;;;;;5114411;28;20438;-55
2021/06/19 07:32:37;;;;;;;17.40;16.40;;;41.40;45.20;;;;;;5110688;28;20446;-57
2021/06/19 07:35:07;;;;;;;16.40;15.50;;;42.10;44.20;;;;;;5103579;28;20531;-58
2021/06/19 07:37:34;;;;;;;15.60;14.80;;;42.70;42.50;;;;;;5116009;28;20442;-58
2021/06/19 07:40:03;;;;;;;16.83;15.90;;;42.80;42.40;;;;;;5115557;28;20659;-57
2021/06/19 07:42:31;;;;;;;16.73;15.63;;;42.70;41.80;;;;;;5114686;27;20570;-57
2021/06/19 07:44:58;;;;;;;15.50;14.30;;;43.70;40.00;;;;;;5113280;28;20501;-59
2021/06/19 07:47:25;;;;;;;16.33;15.27;;;43.90;39.10;;;;;;5115755;28;20446;-57
2021/06/19 07:49:52;;;;;;;16.00;15.10;;;44.10;39.10;;;;;;5115446;28;20446;-58
2021/06/19 07:52:19;;;;;;;17.00;16.10;;;44.30;38.00;;;;;;5116445;28;20438;-57
2021/06/19 07:54:47;;;;;;;17.63;16.60;;;44.40;38.70;;;;;;5116080;28;20996;-56
2021/06/19 07:57:14;;;;;;;17.07;16.17;;;44.50;38.40;;;;;;5116203;27;20842;-57
2021/06/19 07:59:42;;;;;;;16.30;15.40;;;43.30;39.00;;;;;;5114107;28;20810;-56
2021/06/19 08:02:10;;;;;;;15.80;14.90;;;43.50;39.20;;;;;;5115720;28;20438;-56
2021/06/19 08:04:37;;;;;;;16.50;15.60;;;43.50;38.40;;;;;;5117426;28;20488;-57
2021/06/19 08:07:04;;;;;;;17.43;16.33;;;44.00;38.20;;;;;;5116210;28;20438;-59
2021/06/19 08:09:31;;;;;;;15.53;14.73;;;44.00;38.10;;;;;;5117735;27;20483;-57
2021/06/19 08:12:00;;;;;;;15.47;14.73;;;45.90;36.50;;;;;;5116167;28;20455;-58
2021/06/19 08:14:27;;;;;;;15.50;14.70;;;45.80;36.00;;;;;;5115992;27;20658;-57
2021/06/19 08:16:56;;;;;;;15.60;14.80;;;44.00;37.50;;;;;;5109991;28;20686;-57
2021/06/19 08:19:24;;;;;;;16.57;15.60;;;43.00;39.30;;;;;;5117282;28;20446;-57
2021/06/19 08:21:52;;;;;;;15.90;14.87;;;43.30;38.90;;;;;;5109414;28;20493;-57
2021/06/19 08:24:19;;;;;;;16.47;15.43;;;44.20;37.70;;;;;;5117893;28;20450;-59
2021/06/19 08:26:46;;;;;;;16.27;14.80;;;44.70;37.00;;;;;;5106795;28;20489;-58
2021/06/19 08:29:13;;;;;;;17.13;15.90;;;43.80;37.90;;;;;;5114152;28;20480;-58
2021/06/19 08:31:41;;;;;;;14.77;13.97;;;45.60;36.30;;;;;;5117602;28;20775;-58
2021/06/19 08:34:09;;;;;;;15.70;14.90;;;45.50;35.80;;;;;;5104191;28;20442;-56
2021/06/19 08:36:37;;;;;;;14.87;14.17;;;46.60;35.10;;;;;;5109362;28;20832;-58
2021/06/19 08:39:05;;;;;;;15.93;14.97;;;47.80;33.80;;;;;;5098172;28;20431;-58
2021/06/19 08:41:33;;;;;;;15.70;14.90;;;48.70;32.10;;;;;;5115942;28;20449;-59
2021/06/19 08:44:03;;;;;;;16.33;15.53;;;48.40;32.80;;;;;;5104131;28;20721;-58
2021/06/19 08:46:31;;;;;;;15.43;14.67;;;48.60;32.40;;;;;;5116709;28;20440;-59
2021/06/19 08:48:58;;;;;;;15.83;14.83;;;48.30;32.20;;;;;;5107927;28;20803;-58
2021/06/19 08:51:26;;;;;;;15.50;14.70;;;47.60;32.40;;;;;;5117476;28;20442;-58
2021/06/19 08:53:54;;;;;;;15.23;14.30;;;47.40;33.30;;;;;;5106378;28;20812;-58
2021/06/19 08:56:23;;;;;;;15.77;14.97;;;47.90;32.50;;;;;;5113731;28;20481;-58
2021/06/19 08:58:51;;;;;;;18.00;16.90;;;44.60;35.50;;;;;;5117432;28;20453;-58
2021/06/19 09:01:18;;;;;;;15.20;14.30;;;44.60;35.70;;;;;;5114098;28;20456;-59
2021/06/19 09:03:45;;;;;;;15.83;14.83;;;44.10;36.00;;;;;;5111724;28;20454;-59
2021/06/19 09:06:27;;;;;;;16.93;15.83;;;43.30;37.10;;;;;;5115463;28;20802;-57
2021/06/19 09:09:15;;;;;;;16.90;16.00;;;40.80;40.30;;;;;;5113361;28;20438;-58
2021/06/19 09:11:53;;;;;;;17.17;15.87;;;41.20;39.80;;;;;;5113461;28;20508;-59
2021/06/19 09:14:24;;;;;;;16.50;15.50;;;41.00;40.40;;;;;;5114623;28;20521;-58
2021/06/19 09:17:05;;;;;;;17.07;16.13;;;43.20;38.50;;;;;;5102119;28;20520;-59
2021/06/19 09:19:37;;;;;;;15.77;14.90;;;44.30;37.40;;;;;;5115509;27;20721;-58
2021/06/19 09:22:16;;;;;;;17.10;16.13;;;44.60;35.60;;;;;;5106796;28;20512;-58
2021/06/19 09:24:58;;;;;;;15.37;14.57;;;45.40;34.70;;;;;;5108579;28;20681;-58
2021/06/19 09:27:38;;;;;;;16.40;15.50;;;44.40;35.80;;;;;;5099028;28;20429;-60
2021/06/19 09:30:22;;;;;;;15.33;14.50;;;44.30;36.20;;;;;;5110726;28;20842;-59
2021/06/19 09:32:52;;;;;;;15.70;14.80;;;43.70;36.80;;;;;;5102250;28;20541;-59
2021/06/19 09:35:26;;;;;;;14.80;13.70;;;43.50;37.50;;;;;;5111065;28;20482;-59
2021/06/19 09:37:57;;;;;;;13.00;12.30;;;43.40;37.90;;;;;;5099031;28;20427;-60
2021/06/19 09:40:25;;;;;;;13.97;13.20;;;41.60;39.90;;;;;;5102654;28;20443;-59
2021/06/19 09:43:04;;;;;;;13.73;13.00;;;40.30;41.50;;;;;;5097816;28;20564;-58
2021/06/19 09:45:31;;;;;;;15.63;14.53;;;38.50;44.20;;;;;;5110361;28;20435;-59
2021/06/19 09:47:59;;;;;;;14.50;13.63;;;37.00;46.40;;;;;;5114154;28;20438;-59
2021/06/19 09:50:26;;;;;;;13.93;13.13;;;36.30;48.80;;;;;;5114363;28;20754;-59
2021/06/19 09:52:53;;;;;;;13.60;12.80;;;35.90;49.90;;;;;;5109359;28;20446;-57
2021/06/19 09:55:21;;;;;;;13.30;12.30;;;35.60;49.60;;;;;;5115817;28;20485;-58
2021/06/19 09:57:50;;;;;;;13.40;12.60;;;35.10;49.80;;;;;;5107752;28;20449;-59
2021/06/19 10:00:20;;;;;;;13.30;12.50;;;34.80;49.80;;;;;;5116150;28;20468;-60
2021/06/19 10:02:48;;;;;;;12.93;12.10;;;34.30;50.00;;;;;;5117708;28;20445;-59
2021/06/19 10:05:15;;;;;;;13.20;12.40;;;34.20;51.00;;;;;;5120473;28;20441;-59
2021/06/19 10:07:44;;;;;;;14.83;13.83;;;34.30;51.20;;;;;;5118628;28;20438;-58
2021/06/19 10:10:12;;;;;;;13.60;12.83;;;34.20;51.30;;;;;;5121056;28;20434;-59
2021/06/19 10:12:40;;;;;;;13.10;12.40;;;34.10;51.70;;;;;;5121329;28;20442;-60
2021/06/19 10:15:13;;;;;;;13.23;12.40;;;33.80;51.50;;;;;;5120833;28;20466;-57
2021/06/19 10:17:45;;;;;;;13.67;12.73;;;33.70;52.70;;;;;;5120278;28;20457;-59
2021/06/19 10:20:15;;;;;;;12.43;11.53;;;33.90;51.40;;;;;;5115900;28;20453;-59
2021/06/19 10:22:44;;;;;;;13.40;12.70;;;33.80;51.20;;;;;;5114307;28;20460;-59
2021/06/19 10:25:15;;;;;;;13.67;13.00;;;33.60;52.00;;;;;;5111795;28;20569;-59
2021/06/19 10:27:48;;;;;;;14.00;13.20;;;33.30;53.40;;;;;;5106400;28;20460;-59
2021/06/19 10:30:17;;;;;;;14.00;13.00;;;32.90;52.70;;;;;;5114879;28;20439;-58
2021/06/19 10:33:27;;;;;;;13.30;12.50;;;32.50;54.50;;;;;;5106351;28;20442;-59
2021/06/19 10:35:57;;;;;;;14.90;14.03;;;32.80;55.00;;;;;;5116511;28;20466;-59
2021/06/19 10:38:24;;;;;;;13.70;12.90;;;32.70;54.70;;;;;;5117795;28;20453;-59
2021/06/19 10:40:56;;;;;;;14.03;13.20;;;32.70;54.40;;;;;;5119256;28;20801;-59
2021/06/19 10:43:24;;;;;;;14.13;13.33;;;33.00;55.10;;;;;;5118286;28;20689;-58
2021/06/19 10:45:52;;;;;;;12.73;12.03;;;33.20;54.30;;;;;;5119442;28;20446;-59
2021/06/19 10:48:34;;;;;;;12.73;11.93;;;33.10;52.40;;;;;;5119838;28;20618;-58
2021/06/19 10:51:32;;;;;;;12.07;11.33;;;33.10;53.50;;;;;;5114750;28;20524;-58
2021/06/19 10:54:26;;;;;;;13.10;12.27;;;33.10;54.20;;;;;;5110907;28;20441;-58
2021/06/19 10:56:58;;;;;;;14.00;13.10;;;33.30;54.80;;;;;;5117800;28;20522;-58
2021/06/19 10:59:32;;;;;;;14.43;13.53;;;33.30;53.90;;;;;;5113246;28;20468;-58
2021/06/19 11:02:02;;;;;;;13.03;12.33;;;33.40;53.90;;;;;;5108384;28;20459;-58
2021/06/19 11:04:38;;;;;;;14.00;13.20;;;33.60;53.80;;;;;;5117682;28;20446;-58
2021/06/19 11:07:07;;;;;;;12.57;11.83;;;33.70;53.20;;;;;;5107044;28;20445;-58
2021/06/19 11:09:46;;;;;;;12.67;11.97;;;33.60;52.70;;;;;;5116566;28;20495;-59
2021/06/19 11:12:18;;;;;;;12.70;11.80;;;33.60;52.50;;;;;;5111839;28;20445;-58
2021/06/19 11:14:50;;;;;;;13.40;12.60;;;33.50;52.10;;;;;;5116825;28;20663;-58
2021/06/19 11:17:17;;;;;;;13.30;12.50;;;33.60;52.90;;;;;;5117117;27;20706;-60
2021/06/19 11:19:49;;;;;;;11.93;11.33;;;33.70;53.10;;;;;;5114712;28;20430;-58
2021/06/19 11:22:38;;;;;;;13.07;12.27;;;33.90;53.30;;;;;;5115523;28;20515;-58
2021/06/19 11:25:32;;;;;;;13.13;12.40;;;33.90;51.50;;;;;;5115896;28;20433;-58
2021/06/19 11:27:59;;;;;;;13.63;12.83;;;34.10;51.60;;;;;;5115446;28;20434;-58
2021/06/19 11:33:16;;;;;;;11.27;10.60;;;34.20;49.00;;;;;;5115708;27;20589;-57
2021/06/19 11:35:44;;;;;;;12.87;12.07;;;34.20;49.40;;;;;;5107591;27;20481;-58
2021/06/19 11:38:12;;;;;;;12.03;11.43;;;34.20;50.00;;;;;;5118145;28;20442;-59
2021/06/19 11:40:40;;;;;;;12.47;11.50;;;34.20;49.00;;;;;;5115960;28;20488;-59
2021/06/19 11:43:09;;;;;;;12.80;12.10;;;34.00;49.90;;;;;;5108418;28;20579;-58
2021/06/19 11:45:39;;;;;;;12.70;11.90;;;34.00;50.20;;;;;;5116640;28;20442;-58
2021/06/19 11:48:08;;;;;;;12.00;11.20;;;33.60;51.90;;;;;;5110316;28;20806;-57
2021/06/19 11:50:43;;;;;;;12.03;11.33;;;33.60;50.50;;;;;;5117289;28;20437;-58
2021/06/19 11:53:27;;;;;;;12.80;12.10;;;33.60;49.50;;;;;;5118085;28;20479;-58
2021/06/19 11:56:17;;;;;;;11.07;10.47;;;33.40;49.80;;;;;;5111217;28;20481;-59
2021/06/19 11:58:50;;;;;;;11.00;10.40;;;33.40;49.90;;;;;;5102765;28;20475;-59
2021/06/19 12:01:24;;;;;;;12.07;11.37;;;33.50;49.50;;;;;;5116093;28;20691;-58
2021/06/19 12:03:52;;;;;;;10.60;10.00;;;33.50;49.50;;;;;;5114601;28;20429;-58
2021/06/19 12:06:30;;;;;;;11.63;10.97;;;33.50;48.10;;;;;;5114290;28;20487;-58
2021/06/19 12:08:57;;;;;;;12.40;11.60;;;33.40;49.60;;;;;;5114392;28;20472;-60
2021/06/19 12:11:33;;;;;;;12.07;11.07;;;33.30;50.20;;;;;;5116051;28;20450;-58
2021/06/19 12:14:01;;;;;;;11.47;10.77;;;33.30;49.90;;;;;;5114715;28;20799;-58
2021/06/19 12:16:41;;;;;;;11.27;10.67;;;33.90;51.80;;;;;;5116841;28;20523;-58
2021/06/19 12:19:08;;;;;;;11.00;10.33;;;33.10;50.70;;;;;;5116604;28;20873;-58
2021/06/19 12:21:39;;;;;;;8.70;8.30;;;33.20;48.70;;;;;;5116714;28;20462;-58
2021/06/19 12:24:33;;;;;;;7.80;7.50;;;33.30;40.50;;;;;;5117039;28;20446;-58
2021/06/19 12:27:15;;;;;;;8.20;7.80;;;33.20;40.10;;;;;;5110243;28;20756;-57
2021/06/19 12:29:54;;;;;;;7.37;7.07;;;33.10;40.40;;;;;;5110810;28;20433;-58
2021/06/19 12:32:34;;;;;;;9.73;9.20;;;33.00;39.40;;;;;;5115117;28;20505;-58
2021/06/19 12:35:10;;;;;;;8.67;8.27;;;33.00;41.00;;;;;;5114802;28;20414;-58
2021/06/19 12:37:48;;;;;;;8.17;7.87;;;32.90;42.10;;;;;;5108277;28;20466;-58
2021/06/19 12:40:16;;;;;;;9.23;8.57;;;32.90;43.10;;;;;;5109866;28;20518;-58
2021/06/19 12:42:46;;;;;;;9.87;9.27;;;33.00;43.10;;;;;;5114059;28;20455;-57
2021/06/19 12:45:18;;;;;;;9.00;8.53;;;33.10;43.70;;;;;;5114963;28;20435;-58